KRBD/RBD METAR and TAF weather

Enter ICAO airport designator
Station Type Date Time Source
KRBD METAR 2019/06/16 04:53 UTC NOAA

KRBD 160453Z AUTO 17016G25KT 10SM CLR 28/21 A2981 RMK AO2 PK WND 17027/0437 SLP083 T02780206


Station Type Date Time Source
KRBD Decoded METAR 2019/06/16 04:53 UTC NOAA

DALLAS EXECUTIVE AIRPORT, TX, United States (KRBD) 32-41N 096-52W 203M
Jun 16, 2019 - 12:53 AM EDT / 2019.06.16 0453 UTC
Wind: from the S (170 degrees) at 18 MPH (16 KT) gusting to 29 MPH (25 KT):0
Visibility: 10 mile(s):0
Sky conditions: clear
Temperature: 82.0 F (27.8 C)
Dew Point: 69.1 F (20.6 C)
Relative Humidity: 64%
Pressure (altimeter): 29.81 in. Hg (1009 hPa)
ob: KRBD 160453Z AUTO 17016G25KT 10SM CLR 28/21 A2981 RMK AO2 PK WND 17027/0437 SLP083 T02780206
cycle: 5

Station Type Date Time Source
KRBD TAF UTC NOAA

Error!

Example: see airport list